sensor_id;sensor_type;location;lat;lon;timestamp;P1;durP1;ratioP1;P2;durP2;ratioP2
77563;SDS011;66703;48.076;9.220;2023-06-19T00:02:21;11.20;;;10.20;;
77563;SDS011;66703;48.076;9.220;2023-06-19T00:04:47;11.50;;;10.35;;
77563;SDS011;66703;48.076;9.220;2023-06-19T00:07:12;11.18;;;10.07;;
77563;SDS011;66703;48.076;9.220;2023-06-19T00:09:38;11.55;;;10.52;;
77563;SDS011;66703;48.076;9.220;2023-06-19T00:12:03;11.88;;;10.63;;
77563;SDS011;66703;48.076;9.220;2023-06-19T00:14:29;11.25;;;10.27;;
77563;SDS011;66703;48.076;9.220;2023-06-19T00:16:55;11.40;;;10.30;;
77563;SDS011;66703;48.076;9.220;2023-06-19T00:19:21;10.88;;;9.77;;
77563;SDS011;66703;48.076;9.220;2023-06-19T00:21:46;11.63;;;10.43;;
77563;SDS011;66703;48.076;9.220;2023-06-19T00:24:12;11.52;;;10.50;;
77563;SDS011;66703;48.076;9.220;2023-06-19T00:26:37;11.27;;;10.18;;
77563;SDS011;66703;48.076;9.220;2023-06-19T00:29:03;11.82;;;10.93;;
77563;SDS011;66703;48.076;9.220;2023-06-19T00:31:28;13.45;;;10.95;;
77563;SDS011;66703;48.076;9.220;2023-06-19T00:33:54;11.35;;;10.35;;
77563;SDS011;66703;48.076;9.220;2023-06-19T00:36:19;11.73;;;10.52;;
77563;SDS011;66703;48.076;9.220;2023-06-19T00:38:46;12.23;;;11.13;;
77563;SDS011;66703;48.076;9.220;2023-06-19T00:41:12;12.82;;;11.52;;
77563;SDS011;66703;48.076;9.220;2023-06-19T00:43:38;11.70;;;10.50;;
77563;SDS011;66703;48.076;9.220;2023-06-19T00:46:04;12.02;;;10.82;;
77563;SDS011;66703;48.076;9.220;2023-06-19T00:48:30;12.25;;;10.48;;
77563;SDS011;66703;48.076;9.220;2023-06-19T00:50:56;12.00;;;10.90;;
77563;SDS011;66703;48.076;9.220;2023-06-19T00:53:23;12.05;;;11.02;;
77563;SDS011;66703;48.076;9.220;2023-06-19T00:55:53;12.60;;;11.40;;
77563;SDS011;66703;48.076;9.220;2023-06-19T00:58:19;12.52;;;11.32;;
77563;SDS011;66703;48.076;9.220;2023-06-19T01:00:45;11.60;;;10.52;;
77563;SDS011;66703;48.076;9.220;2023-06-19T01:03:11;11.30;;;10.23;;
77563;SDS011;66703;48.076;9.220;2023-06-19T01:05:36;11.82;;;10.73;;
77563;SDS011;66703;48.076;9.220;2023-06-19T01:08:17;11.98;;;10.88;;
77563;SDS011;66703;48.076;9.220;2023-06-19T01:10:56;12.77;;;11.52;;
77563;SDS011;66703;48.076;9.220;2023-06-19T01:16:19;11.48;;;10.35;;
77563;SDS011;66703;48.076;9.220;2023-06-19T01:18:44;10.88;;;9.90;;
77563;SDS011;66703;48.076;9.220;2023-06-19T01:21:13;11.40;;;10.32;;
77563;SDS011;66703;48.076;9.220;2023-06-19T01:23:40;13.10;;;11.80;;
77563;SDS011;66703;48.076;9.220;2023-06-19T01:26:09;11.90;;;10.70;;
77563;SDS011;66703;48.076;9.220;2023-06-19T01:28:35;13.63;;;12.52;;
77563;SDS011;66703;48.076;9.220;2023-06-19T01:33:51;12.23;;;11.07;;
77563;SDS011;66703;48.076;9.220;2023-06-19T01:36:17;13.60;;;12.30;;
77563;SDS011;66703;48.076;9.220;2023-06-19T01:38:44;12.05;;;10.95;;
77563;SDS011;66703;48.076;9.220;2023-06-19T01:41:12;12.27;;;11.13;;
77563;SDS011;66703;48.076;9.220;2023-06-19T01:43:40;11.73;;;10.57;;
77563;SDS011;66703;48.076;9.220;2023-06-19T01:46:08;12.63;;;11.55;;
77563;SDS011;66703;48.076;9.220;2023-06-19T01:48:34;12.93;;;11.85;;
77563;SDS011;66703;48.076;9.220;2023-06-19T01:51:03;11.57;;;10.48;;
77563;SDS011;66703;48.076;9.220;2023-06-19T01:53:32;12.60;;;11.40;;
77563;SDS011;66703;48.076;9.220;2023-06-19T01:58:24;13.52;;;12.32;;
77563;SDS011;66703;48.076;9.220;2023-06-19T02:00:49;12.85;;;11.70;;
77563;SDS011;66703;48.076;9.220;2023-06-19T02:03:15;11.88;;;10.77;;
77563;SDS011;66703;48.076;9.220;2023-06-19T02:05:40;12.10;;;11.00;;
77563;SDS011;66703;48.076;9.220;2023-06-19T02:08:06;11.73;;;10.63;;
77563;SDS011;66703;48.076;9.220;2023-06-19T02:10:31;11.77;;;10.68;;
77563;SDS011;66703;48.076;9.220;2023-06-19T02:12:57;11.02;;;9.85;;
77563;SDS011;66703;48.076;9.220;2023-06-19T02:15:23;10.63;;;9.68;;
77563;SDS011;66703;48.076;9.220;2023-06-19T02:17:50;9.07;;;8.25;;
77563;SDS011;66703;48.076;9.220;2023-06-19T02:20:20;9.65;;;8.75;;
77563;SDS011;66703;48.076;9.220;2023-06-19T02:22:46;9.65;;;8.75;;
77563;SDS011;66703;48.076;9.220;2023-06-19T02:25:12;10.30;;;9.40;;
77563;SDS011;66703;48.076;9.220;2023-06-19T02:27:37;9.75;;;8.90;;
77563;SDS011;66703;48.076;9.220;2023-06-19T02:30:05;8.75;;;7.95;;
77563;SDS011;66703;48.076;9.220;2023-06-19T02:32:31;10.60;;;8.65;;
77563;SDS011;66703;48.076;9.220;2023-06-19T02:34:57;8.20;;;7.40;;
77563;SDS011;66703;48.076;9.220;2023-06-19T02:37:23;9.10;;;7.60;;
77563;SDS011;66703;48.076;9.220;2023-06-19T02:39:48;8.02;;;7.22;;
77563;SDS011;66703;48.076;9.220;2023-06-19T02:42:14;7.93;;;7.13;;
77563;SDS011;66703;48.076;9.220;2023-06-19T02:44:39;8.55;;;7.75;;
77563;SDS011;66703;48.076;9.220;2023-06-19T02:47:05;9.20;;;6.80;;
77563;SDS011;66703;48.076;9.220;2023-06-19T02:49:32;8.13;;;7.30;;
77563;SDS011;66703;48.076;9.220;2023-06-19T02:52:01;7.65;;;6.95;;
77563;SDS011;66703;48.076;9.220;2023-06-19T02:54:27;7.05;;;6.45;;
77563;SDS011;66703;48.076;9.220;2023-06-19T02:56:52;7.32;;;6.55;;
77563;SDS011;66703;48.076;9.220;2023-06-19T02:59:20;7.90;;;6.93;;
77563;SDS011;66703;48.076;9.220;2023-06-19T03:01:46;7.97;;;7.28;;
77563;SDS011;66703;48.076;9.220;2023-06-19T03:04:12;7.90;;;7.03;;
77563;SDS011;66703;48.076;9.220;2023-06-19T03:06:38;7.68;;;6.97;;
77563;SDS011;66703;48.076;9.220;2023-06-19T03:09:05;7.32;;;6.20;;
77563;SDS011;66703;48.076;9.220;2023-06-19T03:11:37;7.85;;;6.53;;
77563;SDS011;66703;48.076;9.220;2023-06-19T03:14:06;7.13;;;6.47;;
77563;SDS011;66703;48.076;9.220;2023-06-19T03:16:32;8.60;;;7.72;;
77563;SDS011;66703;48.076;9.220;2023-06-19T03:19:01;7.35;;;6.70;;
77563;SDS011;66703;48.076;9.220;2023-06-19T03:21:26;7.95;;;7.25;;
77563;SDS011;66703;48.076;9.220;2023-06-19T03:23:52;8.63;;;7.93;;
77563;SDS011;66703;48.076;9.220;2023-06-19T03:26:18;7.82;;;7.13;;
77563;SDS011;66703;48.076;9.220;2023-06-19T03:28:44;8.10;;;6.85;;
77563;SDS011;66703;48.076;9.220;2023-06-19T03:31:11;7.85;;;7.07;;
77563;SDS011;66703;48.076;9.220;2023-06-19T03:33:39;8.20;;;7.40;;
77563;SDS011;66703;48.076;9.220;2023-06-19T03:36:04;6.90;;;6.20;;
77563;SDS011;66703;48.076;9.220;2023-06-19T03:38:30;6.95;;;6.25;;
77563;SDS011;66703;48.076;9.220;2023-06-19T03:40:56;5.93;;;5.40;;
77563;SDS011;66703;48.076;9.220;2023-06-19T03:43:21;6.78;;;6.15;;
77563;SDS011;66703;48.076;9.220;2023-06-19T03:45:47;6.95;;;6.35;;
77563;SDS011;66703;48.076;9.220;2023-06-19T03:48:15;6.40;;;5.50;;
77563;SDS011;66703;48.076;9.220;2023-06-19T03:50:40;5.90;;;5.35;;
77563;SDS011;66703;48.076;9.220;2023-06-19T03:53:10;5.88;;;5.30;;
77563;SDS011;66703;48.076;9.220;2023-06-19T03:55:39;6.15;;;5.30;;
77563;SDS011;66703;48.076;9.220;2023-06-19T03:58:04;6.13;;;5.53;;
77563;SDS011;66703;48.076;9.220;2023-06-19T04:00:31;6.15;;;5.65;;
77563;SDS011;66703;48.076;9.220;2023-06-19T04:02:56;5.35;;;4.85;;
77563;SDS011;66703;48.076;9.220;2023-06-19T04:05:22;6.07;;;5.32;;
77563;SDS011;66703;48.076;9.220;2023-06-19T04:07:47;5.93;;;5.43;;
77563;SDS011;66703;48.076;9.220;2023-06-19T04:10:13;5.43;;;4.72;;
77563;SDS011;66703;48.076;9.220;2023-06-19T04:26:33;4.75;;;4.20;;
77563;SDS011;66703;48.076;9.220;2023-06-19T04:29:01;4.57;;;4.18;;
77563;SDS011;66703;48.076;9.220;2023-06-19T04:32:04;6.00;;;4.35;;
77563;SDS011;66703;48.076;9.220;2023-06-19T04:38:36;6.63;;;4.97;;
77563;SDS011;66703;48.076;9.220;2023-06-19T04:44:59;4.53;;;4.13;;
77563;SDS011;66703;48.076;9.220;2023-06-19T04:48:38;4.63;;;4.22;;
77563;SDS011;66703;48.076;9.220;2023-06-19T04:52:04;4.82;;;4.07;;
77563;SDS011;66703;48.076;9.220;2023-06-19T04:57:16;4.53;;;4.03;;
77563;SDS011;66703;48.076;9.220;2023-06-19T12:43:18;7.28;;;5.78;;
77563;SDS011;66703;48.076;9.220;2023-06-19T12:49:06;6.25;;;5.70;;
77563;SDS011;66703;48.076;9.220;2023-06-19T12:57:50;6.85;;;5.97;;
77563;SDS011;66703;48.076;9.220;2023-06-19T13:00:15;8.90;;;6.22;;
77563;SDS011;66703;48.076;9.220;2023-06-19T13:02:41;6.32;;;5.72;;
77563;SDS011;66703;48.076;9.220;2023-06-19T13:05:09;7.18;;;6.28;;
77563;SDS011;66703;48.076;9.220;2023-06-19T13:07:53;7.72;;;6.07;;
77563;SDS011;66703;48.076;9.220;2023-06-19T13:14:02;6.72;;;5.93;;
77563;SDS011;66703;48.076;9.220;2023-06-19T13:20:47;6.57;;;5.50;;
77563;SDS011;66703;48.076;9.220;2023-06-19T13:26:43;6.35;;;5.78;;
77563;SDS011;66703;48.076;9.220;2023-06-19T13:36:02;8.20;;;5.45;;
77563;SDS011;66703;48.076;9.220;2023-06-19T13:42:16;5.82;;;5.32;;
77563;SDS011;66703;48.076;9.220;2023-06-19T13:44:42;6.22;;;5.72;;
77563;SDS011;66703;48.076;9.220;2023-06-19T13:47:07;5.88;;;5.38;;
77563;SDS011;66703;48.076;9.220;2023-06-19T13:49:33;6.22;;;5.03;;
77563;SDS011;66703;48.076;9.220;2023-06-19T13:51:58;5.95;;;5.43;;
77563;SDS011;66703;48.076;9.220;2023-06-19T13:54:31;6.57;;;5.95;;
77563;SDS011;66703;48.076;9.220;2023-06-19T13:56:57;6.32;;;5.72;;
77563;SDS011;66703;48.076;9.220;2023-06-19T13:59:22;6.38;;;5.82;;
77563;SDS011;66703;48.076;9.220;2023-06-19T14:01:48;6.95;;;6.35;;
77563;SDS011;66703;48.076;9.220;2023-06-19T14:04:13;6.68;;;5.95;;
77563;SDS011;66703;48.076;9.220;2023-06-19T14:06:38;6.25;;;5.65;;
77563;SDS011;66703;48.076;9.220;2023-06-19T14:09:07;5.97;;;5.28;;
77563;SDS011;66703;48.076;9.220;2023-06-19T14:11:35;6.15;;;5.55;;
77563;SDS011;66703;48.076;9.220;2023-06-19T14:14:10;6.10;;;5.60;;
77563;SDS011;66703;48.076;9.220;2023-06-19T14:16:36;7.57;;;6.03;;
77563;SDS011;66703;48.076;9.220;2023-06-19T14:19:01;7.15;;;6.35;;
77563;SDS011;66703;48.076;9.220;2023-06-19T14:21:27;6.53;;;5.97;;
77563;SDS011;66703;48.076;9.220;2023-06-19T14:23:52;6.75;;;5.90;;
77563;SDS011;66703;48.076;9.220;2023-06-19T14:26:21;8.02;;;5.82;;
77563;SDS011;66703;48.076;9.220;2023-06-19T14:28:46;6.68;;;6.07;;
77563;SDS011;66703;48.076;9.220;2023-06-19T14:31:12;6.97;;;5.55;;
77563;SDS011;66703;48.076;9.220;2023-06-19T14:33:38;7.80;;;6.20;;
77563;SDS011;66703;48.076;9.220;2023-06-19T14:36:03;6.82;;;6.07;;
77563;SDS011;66703;48.076;9.220;2023-06-19T14:38:29;5.95;;;5.45;;
77563;SDS011;66703;48.076;9.220;2023-06-19T14:41:01;6.80;;;6.18;;
77563;SDS011;66703;48.076;9.220;2023-06-19T14:43:27;6.20;;;5.60;;
77563;SDS011;66703;48.076;9.220;2023-06-19T14:45:53;6.60;;;6.10;;
77563;SDS011;66703;48.076;9.220;2023-06-19T14:48:19;5.95;;;5.45;;
77563;SDS011;66703;48.076;9.220;2023-06-19T14:50:44;6.25;;;5.65;;
77563;SDS011;66703;48.076;9.220;2023-06-19T14:53:10;11.23;;;5.97;;
77563;SDS011;66703;48.076;9.220;2023-06-19T14:55:35;6.03;;;5.53;;
77563;SDS011;66703;48.076;9.220;2023-06-19T14:58:03;6.13;;;5.53;;
77563;SDS011;66703;48.076;9.220;2023-06-19T15:00:32;8.30;;;5.88;;
77563;SDS011;66703;48.076;9.220;2023-06-19T15:02:58;6.32;;;5.72;;
77563;SDS011;66703;48.076;9.220;2023-06-19T15:05:26;6.45;;;5.85;;
77563;SDS011;66703;48.076;9.220;2023-06-19T15:07:54;6.40;;;5.80;;
77563;SDS011;66703;48.076;9.220;2023-06-19T15:10:20;7.88;;;6.15;;
77563;SDS011;66703;48.076;9.220;2023-06-19T15:12:51;6.80;;;6.13;;
77563;SDS011;66703;48.076;9.220;2023-06-19T15:15:20;7.05;;;6.35;;
77563;SDS011;66703;48.076;9.220;2023-06-19T15:17:56;7.03;;;6.20;;
77563;SDS011;66703;48.076;9.220;2023-06-19T15:20:22;6.95;;;5.68;;
77563;SDS011;66703;48.076;9.220;2023-06-19T15:22:52;6.70;;;6.10;;
77563;SDS011;66703;48.076;9.220;2023-06-19T15:25:41;6.13;;;5.60;;
77563;SDS011;66703;48.076;9.220;2023-06-19T15:28:06;7.07;;;6.38;;
77563;SDS011;66703;48.076;9.220;2023-06-19T15:30:32;6.63;;;5.95;;
77563;SDS011;66703;48.076;9.220;2023-06-19T15:32:57;6.82;;;6.18;;
77563;SDS011;66703;48.076;9.220;2023-06-19T15:35:23;6.80;;;6.18;;
77563;SDS011;66703;48.076;9.220;2023-06-19T15:37:52;7.10;;;5.85;;
77563;SDS011;66703;48.076;9.220;2023-06-19T15:40:26;6.45;;;5.85;;
77563;SDS011;66703;48.076;9.220;2023-06-19T15:42:57;6.32;;;5.32;;
77563;SDS011;66703;48.076;9.220;2023-06-19T15:45:22;5.40;;;4.90;;
77563;SDS011;66703;48.076;9.220;2023-06-19T15:47:48;5.10;;;4.60;;
77563;SDS011;66703;48.076;9.220;2023-06-19T15:50:13;10.48;;;5.47;;
77563;SDS011;66703;48.076;9.220;2023-06-19T15:52:39;6.55;;;5.05;;
77563;SDS011;66703;48.076;9.220;2023-06-19T15:55:04;8.55;;;6.15;;
77563;SDS011;66703;48.076;9.220;2023-06-19T15:57:30;5.90;;;5.30;;
77563;SDS011;66703;48.076;9.220;2023-06-19T15:59:56;6.10;;;5.60;;
77563;SDS011;66703;48.076;9.220;2023-06-19T16:02:21;6.47;;;5.88;;
77563;SDS011;66703;48.076;9.220;2023-06-19T16:04:47;8.30;;;6.10;;
77563;SDS011;66703;48.076;9.220;2023-06-19T16:07:12;7.55;;;5.65;;
77563;SDS011;66703;48.076;9.220;2023-06-19T16:09:38;6.50;;;5.90;;
77563;SDS011;66703;48.076;9.220;2023-06-19T16:12:04;7.00;;;5.70;;
77563;SDS011;66703;48.076;9.220;2023-06-19T16:14:30;7.10;;;6.50;;
77563;SDS011;66703;48.076;9.220;2023-06-19T16:16:56;6.32;;;5.43;;
77563;SDS011;66703;48.076;9.220;2023-06-19T16:19:21;11.20;;;6.55;;
77563;SDS011;66703;48.076;9.220;2023-06-19T16:21:47;6.53;;;5.93;;
77563;SDS011;66703;48.076;9.220;2023-06-19T16:24:12;6.20;;;5.60;;
77563;SDS011;66703;48.076;9.220;2023-06-19T16:26:37;7.85;;;6.05;;
77563;SDS011;66703;48.076;9.220;2023-06-19T16:29:03;7.22;;;5.47;;
77563;SDS011;66703;48.076;9.220;2023-06-19T16:31:31;10.02;;;6.28;;
77563;SDS011;66703;48.076;9.220;2023-06-19T16:33:57;6.47;;;5.88;;
77563;SDS011;66703;48.076;9.220;2023-06-19T16:36:22;6.38;;;5.63;;
77563;SDS011;66703;48.076;9.220;2023-06-19T16:38:48;6.47;;;5.53;;
77563;SDS011;66703;48.076;9.220;2023-06-19T16:41:15;6.65;;;5.88;;
77563;SDS011;66703;48.076;9.220;2023-06-19T16:43:41;6.03;;;5.03;;
77563;SDS011;66703;48.076;9.220;2023-06-19T16:46:06;6.40;;;5.75;;
77563;SDS011;66703;48.076;9.220;2023-06-19T16:48:37;6.90;;;6.30;;
77563;SDS011;66703;48.076;9.220;2023-06-19T16:53:59;6.60;;;5.90;;
77563;SDS011;66703;48.076;9.220;2023-06-19T16:56:25;8.13;;;5.80;;
77563;SDS011;66703;48.076;9.220;2023-06-19T16:58:50;22.13;;;8.07;;
77563;SDS011;66703;48.076;9.220;2023-06-19T17:01:16;6.75;;;5.70;;
77563;SDS011;66703;48.076;9.220;2023-06-19T17:03:41;6.40;;;5.72;;
77563;SDS011;66703;48.076;9.220;2023-06-19T17:06:06;17.17;;;7.28;;
77563;SDS011;66703;48.076;9.220;2023-06-19T17:08:32;12.90;;;6.43;;
77563;SDS011;66703;48.076;9.220;2023-06-19T17:10:57;15.60;;;6.90;;
77563;SDS011;66703;48.076;9.220;2023-06-19T17:13:22;27.90;;;7.95;;
77563;SDS011;66703;48.076;9.220;2023-06-19T17:15:48;7.68;;;5.38;;
77563;SDS011;66703;48.076;9.220;2023-06-19T17:18:13;6.13;;;5.38;;
77563;SDS011;66703;48.076;9.220;2023-06-19T17:20:43;10.77;;;6.22;;
77563;SDS011;66703;48.076;9.220;2023-06-19T17:23:09;6.32;;;5.65;;
77563;SDS011;66703;48.076;9.220;2023-06-19T17:25:34;6.82;;;5.95;;
77563;SDS011;66703;48.076;9.220;2023-06-19T17:28:00;6.78;;;6.07;;
77563;SDS011;66703;48.076;9.220;2023-06-19T17:30:25;7.40;;;5.63;;
77563;SDS011;66703;48.076;9.220;2023-06-19T17:32:51;7.10;;;6.40;;
77563;SDS011;66703;48.076;9.220;2023-06-19T17:35:16;6.80;;;5.95;;
77563;SDS011;66703;48.076;9.220;2023-06-19T17:37:42;6.38;;;5.50;;
77563;SDS011;66703;48.076;9.220;2023-06-19T17:40:11;5.93;;;5.43;;
77563;SDS011;66703;48.076;9.220;2023-06-19T17:42:40;6.00;;;5.35;;
77563;SDS011;66703;48.076;9.220;2023-06-19T17:45:05;5.95;;;5.43;;
77563;SDS011;66703;48.076;9.220;2023-06-19T17:47:31;5.85;;;5.28;;
77563;SDS011;66703;48.076;9.220;2023-06-19T17:49:57;6.20;;;5.70;;
77563;SDS011;66703;48.076;9.220;2023-06-19T17:52:22;6.90;;;6.30;;
77563;SDS011;66703;48.076;9.220;2023-06-19T17:54:47;5.95;;;5.35;;
77563;SDS011;66703;48.076;9.220;2023-06-19T17:57:18;6.57;;;5.97;;
77563;SDS011;66703;48.076;9.220;2023-06-19T17:59:44;6.72;;;6.03;;
77563;SDS011;66703;48.076;9.220;2023-06-19T18:02:10;6.22;;;5.63;;
77563;SDS011;66703;48.076;9.220;2023-06-19T18:04:37;6.53;;;5.93;;
77563;SDS011;66703;48.076;9.220;2023-06-19T18:07:04;6.90;;;5.55;;
77563;SDS011;66703;48.076;9.220;2023-06-19T18:09:33;6.43;;;5.60;;
77563;SDS011;66703;48.076;9.220;2023-06-19T18:11:59;6.80;;;6.20;;
77563;SDS011;66703;48.076;9.220;2023-06-19T18:14:27;6.72;;;6.13;;
77563;SDS011;66703;48.076;9.220;2023-06-19T18:16:53;6.53;;;5.68;;
77563;SDS011;66703;48.076;9.220;2023-06-19T18:19:19;6.82;;;6.22;;
77563;SDS011;66703;48.076;9.220;2023-06-19T18:21:45;6.18;;;5.57;;
77563;SDS011;66703;48.076;9.220;2023-06-19T18:24:26;6.50;;;5.90;;
77563;SDS011;66703;48.076;9.220;2023-06-19T18:51:03;6.75;;;6.00;;
77563;SDS011;66703;48.076;9.220;2023-06-19T18:53:45;6.05;;;5.45;;
77563;SDS011;66703;48.076;9.220;2023-06-19T18:56:43;6.88;;;5.85;;
77563;SDS011;66703;48.076;9.220;2023-06-19T19:10:17;6.90;;;6.30;;
77563;SDS011;66703;48.076;9.220;2023-06-19T19:12:42;6.72;;;5.97;;
77563;SDS011;66703;48.076;9.220;2023-06-19T19:15:08;6.90;;;6.30;;
77563;SDS011;66703;48.076;9.220;2023-06-19T19:17:36;7.13;;;6.43;;
77563;SDS011;66703;48.076;9.220;2023-06-19T19:20:08;6.60;;;6.00;;
77563;SDS011;66703;48.076;9.220;2023-06-19T19:22:34;7.03;;;6.35;;
77563;SDS011;66703;48.076;9.220;2023-06-19T19:25:00;6.72;;;6.10;;
77563;SDS011;66703;48.076;9.220;2023-06-19T19:27:25;7.38;;;6.32;;
77563;SDS011;66703;48.076;9.220;2023-06-19T19:29:51;6.95;;;6.35;;
77563;SDS011;66703;48.076;9.220;2023-06-19T19:32:16;7.45;;;6.60;;
77563;SDS011;66703;48.076;9.220;2023-06-19T19:37:12;7.85;;;6.90;;
77563;SDS011;66703;48.076;9.220;2023-06-19T19:39:37;9.98;;;7.63;;
77563;SDS011;66703;48.076;9.220;2023-06-19T19:42:03;8.82;;;7.93;;
77563;SDS011;66703;48.076;9.220;2023-06-19T19:44:28;8.60;;;7.80;;
77563;SDS011;66703;48.076;9.220;2023-06-19T19:46:54;8.93;;;8.13;;
77563;SDS011;66703;48.076;9.220;2023-06-19T19:49:19;9.00;;;8.20;;
77563;SDS011;66703;48.076;9.220;2023-06-19T19:51:45;8.68;;;7.95;;
77563;SDS011;66703;48.076;9.220;2023-06-19T19:54:10;9.77;;;8.77;;
77563;SDS011;66703;48.076;9.220;2023-06-19T19:56:36;9.70;;;8.80;;
77563;SDS011;66703;48.076;9.220;2023-06-19T19:59:02;9.60;;;8.63;;
77563;SDS011;66703;48.076;9.220;2023-06-19T20:01:28;9.32;;;8.32;;
77563;SDS011;66703;48.076;9.220;2023-06-19T20:03:53;9.68;;;8.68;;
77563;SDS011;66703;48.076;9.220;2023-06-19T20:06:19;8.07;;;7.28;;
77563;SDS011;66703;48.076;9.220;2023-06-19T20:08:44;8.80;;;8.00;;
77563;SDS011;66703;48.076;9.220;2023-06-19T20:11:13;8.75;;;7.95;;
77563;SDS011;66703;48.076;9.220;2023-06-19T20:13:38;8.82;;;8.02;;
77563;SDS011;66703;48.076;9.220;2023-06-19T20:16:04;9.82;;;8.77;;
77563;SDS011;66703;48.076;9.220;2023-06-19T20:18:33;10.10;;;7.68;;
77563;SDS011;66703;48.076;9.220;2023-06-19T20:20:58;9.13;;;8.00;;
77563;SDS011;66703;48.076;9.220;2023-06-19T20:23:24;8.90;;;8.10;;
77563;SDS011;66703;48.076;9.220;2023-06-19T20:25:53;9.05;;;8.15;;
